sensor_id;sensor_type;location;lat;lon;timestamp;P1;durP1;ratioP1;P2;durP2;ratioP2
23266;SDS011;11802;53.160;8.214;2023-04-15T00:00:02;11.60;;;7.27;;
23266;SDS011;11802;53.160;8.214;2023-04-15T00:02:28;11.13;;;7.87;;
23266;SDS011;11802;53.160;8.214;2023-04-15T00:04:54;12.17;;;7.70;;
23266;SDS011;11802;53.160;8.214;2023-04-15T00:07:19;11.20;;;7.57;;
23266;SDS011;11802;53.160;8.214;2023-04-15T00:09:45;10.70;;;7.30;;
23266;SDS011;11802;53.160;8.214;2023-04-15T00:12:10;11.60;;;7.73;;
23266;SDS011;11802;53.160;8.214;2023-04-15T00:14:36;11.23;;;7.93;;
23266;SDS011;11802;53.160;8.214;2023-04-15T00:17:03;10.57;;;7.67;;
23266;SDS011;11802;53.160;8.214;2023-04-15T00:19:29;11.70;;;7.47;;
23266;SDS011;11802;53.160;8.214;2023-04-15T00:21:56;12.50;;;8.37;;
23266;SDS011;11802;53.160;8.214;2023-04-15T00:24:22;10.93;;;7.47;;
23266;SDS011;11802;53.160;8.214;2023-04-15T00:26:47;10.37;;;7.20;;
23266;SDS011;11802;53.160;8.214;2023-04-15T00:29:13;12.47;;;7.50;;
23266;SDS011;11802;53.160;8.214;2023-04-15T00:31:39;11.10;;;7.20;;
23266;SDS011;11802;53.160;8.214;2023-04-15T00:34:06;11.03;;;7.00;;
23266;SDS011;11802;53.160;8.214;2023-04-15T00:36:34;10.60;;;7.23;;
23266;SDS011;11802;53.160;8.214;2023-04-15T00:39:00;10.70;;;7.10;;
23266;SDS011;11802;53.160;8.214;2023-04-15T00:41:27;12.47;;;7.50;;
23266;SDS011;11802;53.160;8.214;2023-04-15T00:43:52;11.33;;;7.73;;
23266;SDS011;11802;53.160;8.214;2023-04-15T00:46:18;13.60;;;7.77;;
23266;SDS011;11802;53.160;8.214;2023-04-15T00:48:45;12.00;;;7.03;;
23266;SDS011;11802;53.160;8.214;2023-04-15T00:51:11;12.63;;;8.13;;
23266;SDS011;11802;53.160;8.214;2023-04-15T00:53:37;13.53;;;8.03;;
23266;SDS011;11802;53.160;8.214;2023-04-15T00:56:03;11.33;;;7.63;;
23266;SDS011;11802;53.160;8.214;2023-04-15T00:58:29;14.97;;;8.20;;
23266;SDS011;11802;53.160;8.214;2023-04-15T01:00:55;12.30;;;8.13;;
23266;SDS011;11802;53.160;8.214;2023-04-15T01:03:22;13.90;;;8.53;;
23266;SDS011;11802;53.160;8.214;2023-04-15T01:05:47;12.77;;;8.53;;
23266;SDS011;11802;53.160;8.214;2023-04-15T01:08:14;12.07;;;8.10;;
23266;SDS011;11802;53.160;8.214;2023-04-15T01:10:39;13.57;;;8.53;;
23266;SDS011;11802;53.160;8.214;2023-04-15T01:13:06;14.73;;;8.93;;
23266;SDS011;11802;53.160;8.214;2023-04-15T01:15:31;13.60;;;9.03;;
23266;SDS011;11802;53.160;8.214;2023-04-15T01:18:00;12.00;;;8.23;;
23266;SDS011;11802;53.160;8.214;2023-04-15T01:20:27;14.70;;;9.57;;
23266;SDS011;11802;53.160;8.214;2023-04-15T01:22:53;13.63;;;9.27;;
23266;SDS011;11802;53.160;8.214;2023-04-15T01:25:29;13.37;;;8.83;;
23266;SDS011;11802;53.160;8.214;2023-04-15T01:27:56;14.53;;;9.37;;
23266;SDS011;11802;53.160;8.214;2023-04-15T01:30:22;16.03;;;9.97;;
23266;SDS011;11802;53.160;8.214;2023-04-15T01:32:49;15.37;;;10.07;;
23266;SDS011;11802;53.160;8.214;2023-04-15T01:35:15;15.90;;;10.17;;
23266;SDS011;11802;53.160;8.214;2023-04-15T01:37:41;17.73;;;11.23;;
23266;SDS011;11802;53.160;8.214;2023-04-15T01:40:07;18.03;;;11.40;;
23266;SDS011;11802;53.160;8.214;2023-04-15T01:42:34;22.93;;;13.20;;
23266;SDS011;11802;53.160;8.214;2023-04-15T01:45:00;21.20;;;13.23;;
23266;SDS011;11802;53.160;8.214;2023-04-15T01:47:26;20.37;;;13.77;;
23266;SDS011;11802;53.160;8.214;2023-04-15T01:49:53;22.13;;;14.13;;
23266;SDS011;11802;53.160;8.214;2023-04-15T01:52:18;19.70;;;12.93;;
23266;SDS011;11802;53.160;8.214;2023-04-15T01:54:44;21.80;;;14.17;;
23266;SDS011;11802;53.160;8.214;2023-04-15T01:57:10;22.20;;;14.50;;
23266;SDS011;11802;53.160;8.214;2023-04-15T01:59:37;25.43;;;15.30;;
23266;SDS011;11802;53.160;8.214;2023-04-15T02:02:03;22.63;;;14.87;;
23266;SDS011;11802;53.160;8.214;2023-04-15T02:04:29;21.97;;;14.70;;
23266;SDS011;11802;53.160;8.214;2023-04-15T02:06:54;23.73;;;14.80;;
23266;SDS011;11802;53.160;8.214;2023-04-15T02:09:20;20.13;;;13.47;;
23266;SDS011;11802;53.160;8.214;2023-04-15T02:11:46;28.03;;;15.03;;
23266;SDS011;11802;53.160;8.214;2023-04-15T02:14:11;21.13;;;13.63;;
23266;SDS011;11802;53.160;8.214;2023-04-15T02:16:37;22.77;;;14.37;;
23266;SDS011;11802;53.160;8.214;2023-04-15T02:19:02;21.23;;;14.00;;
23266;SDS011;11802;53.160;8.214;2023-04-15T02:21:28;24.73;;;15.17;;
23266;SDS011;11802;53.160;8.214;2023-04-15T02:23:54;23.60;;;15.13;;
23266;SDS011;11802;53.160;8.214;2023-04-15T02:26:20;19.73;;;13.27;;
23266;SDS011;11802;53.160;8.214;2023-04-15T02:28:46;21.27;;;13.60;;
23266;SDS011;11802;53.160;8.214;2023-04-15T02:31:18;23.33;;;14.33;;
23266;SDS011;11802;53.160;8.214;2023-04-15T02:33:43;21.53;;;13.70;;
23266;SDS011;11802;53.160;8.214;2023-04-15T02:36:09;21.43;;;13.40;;
23266;SDS011;11802;53.160;8.214;2023-04-15T02:38:36;20.57;;;13.03;;
23266;SDS011;11802;53.160;8.214;2023-04-15T02:41:02;20.53;;;13.00;;
23266;SDS011;11802;53.160;8.214;2023-04-15T02:43:28;21.97;;;14.07;;
23266;SDS011;11802;53.160;8.214;2023-04-15T02:45:54;19.67;;;12.90;;
23266;SDS011;11802;53.160;8.214;2023-04-15T02:48:20;19.30;;;13.73;;
23266;SDS011;11802;53.160;8.214;2023-04-15T02:50:45;18.87;;;12.33;;
23266;SDS011;11802;53.160;8.214;2023-04-15T02:53:11;20.17;;;13.13;;
23266;SDS011;11802;53.160;8.214;2023-04-15T02:55:38;18.77;;;12.37;;
23266;SDS011;11802;53.160;8.214;2023-04-15T02:58:04;18.90;;;12.50;;
23266;SDS011;11802;53.160;8.214;2023-04-15T03:00:30;21.57;;;13.37;;
23266;SDS011;11802;53.160;8.214;2023-04-15T03:03:00;20.53;;;13.07;;
23266;SDS011;11802;53.160;8.214;2023-04-15T03:05:27;17.83;;;11.73;;
23266;SDS011;11802;53.160;8.214;2023-04-15T03:07:53;20.03;;;12.60;;
23266;SDS011;11802;53.160;8.214;2023-04-15T03:10:18;19.33;;;12.63;;
23266;SDS011;11802;53.160;8.214;2023-04-15T03:12:44;20.20;;;12.93;;
23266;SDS011;11802;53.160;8.214;2023-04-15T03:15:10;18.77;;;12.60;;
23266;SDS011;11802;53.160;8.214;2023-04-15T03:17:36;16.70;;;12.07;;
23266;SDS011;11802;53.160;8.214;2023-04-15T03:20:02;18.50;;;12.07;;
23266;SDS011;11802;53.160;8.214;2023-04-15T03:22:30;16.70;;;11.80;;
23266;SDS011;11802;53.160;8.214;2023-04-15T03:24:56;19.73;;;11.80;;
23266;SDS011;11802;53.160;8.214;2023-04-15T03:27:21;17.93;;;11.73;;
23266;SDS011;11802;53.160;8.214;2023-04-15T03:29:47;20.70;;;11.47;;
23266;SDS011;11802;53.160;8.214;2023-04-15T03:32:13;15.20;;;10.40;;
23266;SDS011;11802;53.160;8.214;2023-04-15T03:34:39;17.67;;;10.93;;
23266;SDS011;11802;53.160;8.214;2023-04-15T03:37:05;17.33;;;10.73;;
23266;SDS011;11802;53.160;8.214;2023-04-15T03:39:31;17.63;;;11.17;;
23266;SDS011;11802;53.160;8.214;2023-04-15T03:41:57;16.67;;;10.53;;
23266;SDS011;11802;53.160;8.214;2023-04-15T03:44:23;19.60;;;11.30;;
23266;SDS011;11802;53.160;8.214;2023-04-15T03:46:50;17.27;;;10.90;;
23266;SDS011;11802;53.160;8.214;2023-04-15T03:49:15;16.93;;;11.70;;
23266;SDS011;11802;53.160;8.214;2023-04-15T03:51:41;20.37;;;10.83;;
23266;SDS011;11802;53.160;8.214;2023-04-15T03:54:07;17.97;;;11.00;;
23266;SDS011;11802;53.160;8.214;2023-04-15T03:56:32;16.03;;;10.63;;
23266;SDS011;11802;53.160;8.214;2023-04-15T03:58:59;15.83;;;10.50;;
23266;SDS011;11802;53.160;8.214;2023-04-15T04:01:25;19.23;;;10.87;;
23266;SDS011;11802;53.160;8.214;2023-04-15T04:03:50;17.20;;;10.60;;
23266;SDS011;11802;53.160;8.214;2023-04-15T04:06:16;16.33;;;10.73;;
23266;SDS011;11802;53.160;8.214;2023-04-15T04:08:41;18.93;;;11.30;;
23266;SDS011;11802;53.160;8.214;2023-04-15T04:11:07;18.13;;;10.93;;
23266;SDS011;11802;53.160;8.214;2023-04-15T04:13:33;17.17;;;11.30;;
23266;SDS011;11802;53.160;8.214;2023-04-15T04:15:58;18.53;;;11.07;;
23266;SDS011;11802;53.160;8.214;2023-04-15T04:18:24;18.27;;;10.90;;
23266;SDS011;11802;53.160;8.214;2023-04-15T04:20:49;16.93;;;10.73;;
23266;SDS011;11802;53.160;8.214;2023-04-15T04:23:15;17.53;;;11.10;;
23266;SDS011;11802;53.160;8.214;2023-04-15T04:25:40;18.73;;;11.67;;
23266;SDS011;11802;53.160;8.214;2023-04-15T04:28:06;18.37;;;11.43;;
23266;SDS011;11802;53.160;8.214;2023-04-15T04:30:32;19.53;;;12.20;;
23266;SDS011;11802;53.160;8.214;2023-04-15T04:32:57;18.47;;;12.03;;
23266;SDS011;11802;53.160;8.214;2023-04-15T04:35:23;16.83;;;11.10;;
23266;SDS011;11802;53.160;8.214;2023-04-15T04:37:48;22.47;;;12.73;;
23266;SDS011;11802;53.160;8.214;2023-04-15T04:40:15;20.33;;;13.23;;
23266;SDS011;11802;53.160;8.214;2023-04-15T04:42:40;20.50;;;13.13;;
23266;SDS011;11802;53.160;8.214;2023-04-15T04:45:06;20.90;;;12.83;;
23266;SDS011;11802;53.160;8.214;2023-04-15T04:47:32;17.33;;;11.60;;
23266;SDS011;11802;53.160;8.214;2023-04-15T04:49:58;20.20;;;12.83;;
23266;SDS011;11802;53.160;8.214;2023-04-15T04:52:23;20.23;;;12.73;;
23266;SDS011;11802;53.160;8.214;2023-04-15T04:54:49;20.90;;;12.37;;
23266;SDS011;11802;53.160;8.214;2023-04-15T04:57:14;17.13;;;10.97;;
23266;SDS011;11802;53.160;8.214;2023-04-15T04:59:40;18.70;;;12.30;;
23266;SDS011;11802;53.160;8.214;2023-04-15T05:02:05;19.30;;;12.37;;
23266;SDS011;11802;53.160;8.214;2023-04-15T05:04:31;21.87;;;12.90;;
23266;SDS011;11802;53.160;8.214;2023-04-15T05:06:57;20.17;;;12.93;;
23266;SDS011;11802;53.160;8.214;2023-04-15T05:09:23;19.63;;;12.43;;
23266;SDS011;11802;53.160;8.214;2023-04-15T05:11:49;21.87;;;12.50;;
23266;SDS011;11802;53.160;8.214;2023-04-15T05:14:14;18.90;;;13.00;;
23266;SDS011;11802;53.160;8.214;2023-04-15T05:16:40;20.60;;;12.37;;
23266;SDS011;11802;53.160;8.214;2023-04-15T05:19:06;19.90;;;12.90;;
23266;SDS011;11802;53.160;8.214;2023-04-15T05:21:32;21.97;;;12.33;;
23266;SDS011;11802;53.160;8.214;2023-04-15T05:23:57;19.67;;;12.77;;
23266;SDS011;11802;53.160;8.214;2023-04-15T05:26:23;20.20;;;11.87;;
23266;SDS011;11802;53.160;8.214;2023-04-15T05:28:49;18.33;;;11.70;;
23266;SDS011;11802;53.160;8.214;2023-04-15T05:31:14;17.60;;;11.63;;
23266;SDS011;11802;53.160;8.214;2023-04-15T05:33:40;20.23;;;12.90;;
23266;SDS011;11802;53.160;8.214;2023-04-15T05:36:06;19.90;;;12.70;;
23266;SDS011;11802;53.160;8.214;2023-04-15T05:38:32;21.00;;;12.37;;
23266;SDS011;11802;53.160;8.214;2023-04-15T05:40:57;20.73;;;12.50;;
23266;SDS011;11802;53.160;8.214;2023-04-15T05:43:23;15.43;;;10.40;;
23266;SDS011;11802;53.160;8.214;2023-04-15T05:45:48;21.00;;;11.53;;
23266;SDS011;11802;53.160;8.214;2023-04-15T05:48:14;18.60;;;12.10;;
23266;SDS011;11802;53.160;8.214;2023-04-15T05:50:40;18.70;;;12.20;;
23266;SDS011;11802;53.160;8.214;2023-04-15T05:53:06;17.37;;;10.23;;
23266;SDS011;11802;53.160;8.214;2023-04-15T05:55:32;17.37;;;10.77;;
23266;SDS011;11802;53.160;8.214;2023-04-15T05:57:58;21.10;;;12.17;;
23266;SDS011;11802;53.160;8.214;2023-04-15T06:00:23;17.13;;;10.37;;
23266;SDS011;11802;53.160;8.214;2023-04-15T06:02:49;18.23;;;12.13;;
23266;SDS011;11802;53.160;8.214;2023-04-15T06:05:15;20.73;;;12.00;;
23266;SDS011;11802;53.160;8.214;2023-04-15T06:07:42;21.30;;;12.20;;
23266;SDS011;11802;53.160;8.214;2023-04-15T06:10:08;21.20;;;12.63;;
23266;SDS011;11802;53.160;8.214;2023-04-15T06:12:34;19.20;;;12.20;;
23266;SDS011;11802;53.160;8.214;2023-04-15T06:15:00;20.20;;;12.57;;
23266;SDS011;11802;53.160;8.214;2023-04-15T06:17:25;20.27;;;12.73;;
23266;SDS011;11802;53.160;8.214;2023-04-15T06:19:51;20.80;;;12.93;;
23266;SDS011;11802;53.160;8.214;2023-04-15T06:22:20;22.77;;;12.67;;
23266;SDS011;11802;53.160;8.214;2023-04-15T06:24:47;19.53;;;12.17;;
23266;SDS011;11802;53.160;8.214;2023-04-15T06:27:14;20.87;;;12.47;;
23266;SDS011;11802;53.160;8.214;2023-04-15T06:29:40;25.50;;;13.73;;
23266;SDS011;11802;53.160;8.214;2023-04-15T06:32:06;20.40;;;12.40;;
23266;SDS011;11802;53.160;8.214;2023-04-15T06:34:31;20.07;;;12.37;;
23266;SDS011;11802;53.160;8.214;2023-04-15T06:36:57;23.37;;;13.60;;
23266;SDS011;11802;53.160;8.214;2023-04-15T06:39:22;21.90;;;13.47;;
23266;SDS011;11802;53.160;8.214;2023-04-15T06:41:48;22.43;;;13.03;;
23266;SDS011;11802;53.160;8.214;2023-04-15T06:44:13;19.70;;;13.77;;
23266;SDS011;11802;53.160;8.214;2023-04-15T06:46:39;22.97;;;13.07;;
23266;SDS011;11802;53.160;8.214;2023-04-15T06:49:05;20.53;;;12.57;;
23266;SDS011;11802;53.160;8.214;2023-04-15T06:51:30;19.73;;;11.47;;
23266;SDS011;11802;53.160;8.214;2023-04-15T06:53:56;24.43;;;12.97;;
23266;SDS011;11802;53.160;8.214;2023-04-15T06:56:22;20.63;;;12.40;;
23266;SDS011;11802;53.160;8.214;2023-04-15T06:58:47;23.00;;;11.73;;
23266;SDS011;11802;53.160;8.214;2023-04-15T07:01:13;18.63;;;11.47;;
23266;SDS011;11802;53.160;8.214;2023-04-15T07:03:38;17.03;;;9.60;;
23266;SDS011;11802;53.160;8.214;2023-04-15T07:06:05;22.97;;;11.13;;
23266;SDS011;11802;53.160;8.214;2023-04-15T07:08:32;16.27;;;9.37;;
23266;SDS011;11802;53.160;8.214;2023-04-15T07:10:58;15.10;;;9.10;;
23266;SDS011;11802;53.160;8.214;2023-04-15T07:13:24;16.40;;;9.47;;
23266;SDS011;11802;53.160;8.214;2023-04-15T07:15:50;14.67;;;9.53;;
23266;SDS011;11802;53.160;8.214;2023-04-15T07:18:15;14.37;;;9.20;;
23266;SDS011;11802;53.160;8.214;2023-04-15T07:20:41;14.03;;;8.20;;
23266;SDS011;11802;53.160;8.214;2023-04-15T07:23:07;15.23;;;8.30;;
23266;SDS011;11802;53.160;8.214;2023-04-15T07:25:32;15.03;;;8.90;;
23266;SDS011;11802;53.160;8.214;2023-04-15T07:27:59;15.80;;;7.83;;
23266;SDS011;11802;53.160;8.214;2023-04-15T07:30:24;12.10;;;7.50;;
23266;SDS011;11802;53.160;8.214;2023-04-15T07:32:50;13.40;;;8.03;;
23266;SDS011;11802;53.160;8.214;2023-04-15T07:35:16;14.60;;;7.70;;
23266;SDS011;11802;53.160;8.214;2023-04-15T07:37:42;11.07;;;7.33;;
23266;SDS011;11802;53.160;8.214;2023-04-15T07:40:08;12.63;;;7.37;;
23266;SDS011;11802;53.160;8.214;2023-04-15T07:42:34;11.00;;;7.37;;
23266;SDS011;11802;53.160;8.214;2023-04-15T07:45:01;13.47;;;7.97;;
23266;SDS011;11802;53.160;8.214;2023-04-15T07:47:27;14.23;;;6.90;;
23266;SDS011;11802;53.160;8.214;2023-04-15T07:49:52;13.77;;;7.20;;
23266;SDS011;11802;53.160;8.214;2023-04-15T07:52:18;12.87;;;7.40;;
23266;SDS011;11802;53.160;8.214;2023-04-15T07:54:44;12.80;;;6.53;;
23266;SDS011;11802;53.160;8.214;2023-04-15T07:57:09;11.77;;;7.23;;
23266;SDS011;11802;53.160;8.214;2023-04-15T07:59:35;12.10;;;7.30;;
23266;SDS011;11802;53.160;8.214;2023-04-15T08:02:00;16.10;;;7.73;;
23266;SDS011;11802;53.160;8.214;2023-04-15T08:04:26;13.53;;;6.97;;
23266;SDS011;11802;53.160;8.214;2023-04-15T08:06:52;14.50;;;7.63;;
23266;SDS011;11802;53.160;8.214;2023-04-15T08:09:18;11.83;;;7.20;;
23266;SDS011;11802;53.160;8.214;2023-04-15T08:11:45;13.20;;;7.57;;
23266;SDS011;11802;53.160;8.214;2023-04-15T08:14:12;13.73;;;7.27;;
23266;SDS011;11802;53.160;8.214;2023-04-15T08:16:38;12.10;;;7.00;;
23266;SDS011;11802;53.160;8.214;2023-04-15T08:19:03;10.03;;;6.17;;
23266;SDS011;11802;53.160;8.214;2023-04-15T08:21:29;11.57;;;5.87;;
23266;SDS011;11802;53.160;8.214;2023-04-15T08:23:55;11.83;;;5.57;;
23266;SDS011;11802;53.160;8.214;2023-04-15T08:26:21;10.13;;;5.70;;
23266;SDS011;11802;53.160;8.214;2023-04-15T08:28:47;10.13;;;5.83;;
23266;SDS011;11802;53.160;8.214;2023-04-15T08:31:13;7.07;;;3.90;;
23266;SDS011;11802;53.160;8.214;2023-04-15T08:33:40;10.00;;;4.50;;
23266;SDS011;11802;53.160;8.214;2023-04-15T08:36:06;8.83;;;4.90;;
23266;SDS011;11802;53.160;8.214;2023-04-15T08:38:31;8.20;;;4.37;;
23266;SDS011;11802;53.160;8.214;2023-04-15T08:40:58;11.37;;;4.27;;
23266;SDS011;11802;53.160;8.214;2023-04-15T08:43:27;9.40;;;4.43;;
23266;SDS011;11802;53.160;8.214;2023-04-15T08:45:58;7.37;;;4.37;;
23266;SDS011;11802;53.160;8.214;2023-04-15T08:48:27;8.87;;;4.33;;
23266;SDS011;11802;53.160;8.214;2023-04-15T08:50:54;8.60;;;4.30;;
23266;SDS011;11802;53.160;8.214;2023-04-15T08:53:20;7.73;;;4.33;;
23266;SDS011;11802;53.160;8.214;2023-04-15T08:55:46;7.27;;;4.00;;
23266;SDS011;11802;53.160;8.214;2023-04-15T08:58:16;5.83;;;3.43;;
23266;SDS011;11802;53.160;8.214;2023-04-15T09:00:43;6.03;;;4.07;;
23266;SDS011;11802;53.160;8.214;2023-04-15T09:03:09;6.87;;;4.37;;
23266;SDS011;11802;53.160;8.214;2023-04-15T09:05:35;6.70;;;3.83;;
23266;SDS011;11802;53.160;8.214;2023-04-15T09:08:01;5.83;;;3.73;;
23266;SDS011;11802;53.160;8.214;2023-04-15T09:10:27;7.30;;;4.20;;
23266;SDS011;11802;53.160;8.214;2023-04-15T09:12:53;7.20;;;3.60;;
23266;SDS011;11802;53.160;8.214;2023-04-15T09:15:19;10.73;;;4.40;;
23266;SDS011;11802;53.160;8.214;2023-04-15T09:17:45;8.10;;;4.40;;
23266;SDS011;11802;53.160;8.214;2023-04-15T09:20:13;6.40;;;3.77;;
23266;SDS011;11802;53.160;8.214;2023-04-15T09:22:39;8.67;;;4.20;;
23266;SDS011;11802;53.160;8.214;2023-04-15T09:25:28;6.40;;;4.17;;
23266;SDS011;11802;53.160;8.214;2023-04-15T09:27:54;6.47;;;3.90;;
23266;SDS011;11802;53.160;8.214;2023-04-15T09:30:25;8.97;;;4.40;;
23266;SDS011;11802;53.160;8.214;2023-04-15T09:32:59;7.47;;;4.43;;
23266;SDS011;11802;53.160;8.214;2023-04-15T09:35:26;9.43;;;4.53;;
23266;SDS011;11802;53.160;8.214;2023-04-15T09:37:52;10.33;;;4.73;;
23266;SDS011;11802;53.160;8.214;2023-04-15T09:43:01;8.80;;;4.60;;
23266;SDS011;11802;53.160;8.214;2023-04-15T09:45:27;9.33;;;4.60;;
23266;SDS011;11802;53.160;8.214;2023-04-15T09:47:53;9.30;;;4.40;;
23266;SDS011;11802;53.160;8.214;2023-04-15T09:50:19;9.43;;;3.90;;
23266;SDS011;11802;53.160;8.214;2023-04-15T09:52:46;9.67;;;3.60;;
23266;SDS011;11802;53.160;8.214;2023-04-15T09:55:12;7.00;;;4.23;;
23266;SDS011;11802;53.160;8.214;2023-04-15T09:57:38;9.73;;;4.67;;
23266;SDS011;11802;53.160;8.214;2023-04-15T10:00:08;7.47;;;4.40;;
23266;SDS011;11802;53.160;8.214;2023-04-15T10:02:35;7.10;;;4.07;;
23266;SDS011;11802;53.160;8.214;2023-04-15T10:05:01;8.37;;;3.67;;
23266;SDS011;11802;53.160;8.214;2023-04-15T10:07:27;6.20;;;3.60;;
23266;SDS011;11802;53.160;8.214;2023-04-15T10:09:53;10.13;;;4.33;;
23266;SDS011;11802;53.160;8.214;2023-04-15T10:12:20;8.50;;;3.43;;
23266;SDS011;11802;53.160;8.214;2023-04-15T10:14:51;7.27;;;3.80;;
23266;SDS011;11802;53.160;8.214;2023-04-15T10:17:21;6.67;;;4.07;;
23266;SDS011;11802;53.160;8.214;2023-04-15T10:19:47;8.40;;;4.10;;
23266;SDS011;11802;53.160;8.214;2023-04-15T10:22:13;5.80;;;3.80;;
23266;SDS011;11802;53.160;8.214;2023-04-15T10:24:40;6.83;;;3.67;;
23266;SDS011;11802;53.160;8.214;2023-04-15T10:27:07;5.77;;;3.40;;
23266;SDS011;11802;53.160;8.214;2023-04-15T10:29:33;6.47;;;3.33;;
23266;SDS011;11802;53.160;8.214;2023-04-15T10:31:59;5.87;;;3.47;;
23266;SDS011;11802;53.160;8.214;2023-04-15T10:34:25;5.67;;;3.33;;
23266;SDS011;11802;53.160;8.214;2023-04-15T10:36:55;6.70;;;3.00;;
23266;SDS011;11802;53.160;8.214;2023-04-15T10:39:41;5.63;;;3.13;;
23266;SDS011;11802;53.160;8.214;2023-04-15T10:42:14;6.27;;;3.83;;
23266;SDS011;11802;53.160;8.214;2023-04-15T10:44:42;7.03;;;3.60;;
23266;SDS011;11802;53.160;8.214;2023-04-15T10:47:11;6.80;;;3.63;;
23266;SDS011;11802;53.160;8.214;2023-04-15T10:49:45;6.70;;;4.23;;
23266;SDS011;11802;53.160;8.214;2023-04-15T10:52:15;6.60;;;3.57;;
23266;SDS011;11802;53.160;8.214;2023-04-15T10:54:46;7.07;;;3.23;;
23266;SDS011;11802;53.160;8.214;2023-04-15T10:57:20;9.40;;;4.03;;
23266;SDS011;11802;53.160;8.214;2023-04-15T11:00:00;6.80;;;3.60;;
23266;SDS011;11802;53.160;8.214;2023-04-15T11:02:46;7.03;;;3.80;;
23266;SDS011;11802;53.160;8.214;2023-04-15T11:05:16;5.60;;;3.47;;
23266;SDS011;11802;53.160;8.214;2023-04-15T11:12:46;3.60;;;2.50;;
23266;SDS011;11802;53.160;8.214;2023-04-15T11:15:26;4.47;;;2.70;;
23266;SDS011;11802;53.160;8.214;2023-04-15T11:18:08;4.80;;;2.60;;
23266;SDS011;11802;53.160;8.214;2023-04-15T11:20:37;5.03;;;2.90;;
23266;SDS011;11802;53.160;8.214;2023-04-15T11:23:04;5.27;;;3.17;;
23266;SDS011;11802;53.160;8.214;2023-04-15T11:25:31;7.63;;;3.27;;
23266;SDS011;11802;53.160;8.214;2023-04-15T11:27:58;6.60;;;3.60;;
23266;SDS011;11802;53.160;8.214;2023-04-15T11:30:27;5.63;;;3.33;;
23266;SDS011;11802;53.160;8.214;2023-04-15T11:32:56;8.07;;;3.67;;
23266;SDS011;11802;53.160;8.214;2023-04-15T11:35:23;6.60;;;3.73;;
23266;SDS011;11802;53.160;8.214;2023-04-15T11:37:49;5.87;;;3.27;;
23266;SDS011;11802;53.160;8.214;2023-04-15T11:40:15;7.63;;;3.60;;
23266;SDS011;11802;53.160;8.214;2023-04-15T11:42:46;7.57;;;3.70;;
23266;SDS011;11802;53.160;8.214;2023-04-15T11:45:13;7.47;;;4.03;;
23266;SDS011;11802;53.160;8.214;2023-04-15T11:47:40;7.40;;;3.97;;
23266;SDS011;11802;53.160;8.214;2023-04-15T11:50:12;8.53;;;4.50;;
23266;SDS011;11802;53.160;8.214;2023-04-15T11:52:54;7.47;;;4.47;;
23266;SDS011;11802;53.160;8.214;2023-04-15T11:55:21;8.00;;;4.20;;
23266;SDS011;11802;53.160;8.214;2023-04-15T11:57:49;11.00;;;4.63;;
23266;SDS011;11802;53.160;8.214;2023-04-15T12:00:15;9.43;;;4.80;;
23266;SDS011;11802;53.160;8.214;2023-04-15T12:02:42;9.53;;;4.90;;
23266;SDS011;11802;53.160;8.214;2023-04-15T12:05:08;11.93;;;5.80;;
23266;SDS011;11802;53.160;8.214;2023-04-15T12:07:56;11.83;;;6.27;;
23266;SDS011;11802;53.160;8.214;2023-04-15T12:10:25;8.57;;;5.43;;
23266;SDS011;11802;53.160;8.214;2023-04-15T12:12:51;11.90;;;6.27;;
23266;SDS011;11802;53.160;8.214;2023-04-15T12:15:20;12.30;;;5.93;;
23266;SDS011;11802;53.160;8.214;2023-04-15T12:17:46;9.80;;;5.30;;
23266;SDS011;11802;53.160;8.214;2023-04-15T12:20:12;10.37;;;6.13;;
23266;SDS011;11802;53.160;8.214;2023-04-15T12:22:38;9.13;;;5.83;;
23266;SDS011;11802;53.160;8.214;2023-04-15T12:25:03;11.33;;;6.60;;
23266;SDS011;11802;53.160;8.214;2023-04-15T12:27:30;12.87;;;6.67;;
23266;SDS011;11802;53.160;8.214;2023-04-15T12:30:05;17.90;;;7.10;;
23266;SDS011;11802;53.160;8.214;2023-04-15T12:32:34;14.07;;;7.00;;
23266;SDS011;11802;53.160;8.214;2023-04-15T12:35:00;14.40;;;8.27;;
23266;SDS011;11802;53.160;8.214;2023-04-15T12:37:25;12.87;;;7.87;;
23266;SDS011;11802;53.160;8.214;2023-04-15T12:39:51;17.53;;;9.30;;
23266;SDS011;11802;53.160;8.214;2023-04-15T12:42:17;19.13;;;10.63;;
23266;SDS011;11802;53.160;8.214;2023-04-15T12:44:43;20.27;;;9.37;;
23266;SDS011;11802;53.160;8.214;2023-04-15T12:47:09;18.07;;;9.50;;
23266;SDS011;11802;53.160;8.214;2023-04-15T12:49:36;20.70;;;10.63;;
23266;SDS011;11802;53.160;8.214;2023-04-15T12:52:02;19.37;;;9.37;;
23266;SDS011;11802;53.160;8.214;2023-04-15T12:54:28;21.60;;;10.53;;
23266;SDS011;11802;53.160;8.214;2023-04-15T12:56:55;24.87;;;10.97;;
23266;SDS011;11802;53.160;8.214;2023-04-15T12:59:21;23.83;;;11.57;;
23266;SDS011;11802;53.160;8.214;2023-04-15T13:01:47;22.90;;;11.47;;
23266;SDS011;11802;53.160;8.214;2023-04-15T13:04:14;20.93;;;11.57;;
23266;SDS011;11802;53.160;8.214;2023-04-15T13:06:40;26.20;;;12.80;;
23266;SDS011;11802;53.160;8.214;2023-04-15T13:09:06;25.33;;;12.67;;
23266;SDS011;11802;53.160;8.214;2023-04-15T13:11:31;29.27;;;14.33;;
23266;SDS011;11802;53.160;8.214;2023-04-15T13:14:01;34.53;;;15.70;;
23266;SDS011;11802;53.160;8.214;2023-04-15T13:16:28;29.67;;;14.87;;
23266;SDS011;11802;53.160;8.214;2023-04-15T13:18:54;34.70;;;17.20;;
23266;SDS011;11802;53.160;8.214;2023-04-15T13:21:20;35.60;;;15.93;;
23266;SDS011;11802;53.160;8.214;2023-04-15T13:23:45;32.40;;;15.40;;
23266;SDS011;11802;53.160;8.214;2023-04-15T13:26:13;33.80;;;15.73;;
23266;SDS011;11802;53.160;8.214;2023-04-15T13:28:38;40.13;;;17.40;;
23266;SDS011;11802;53.160;8.214;2023-04-15T13:31:04;39.00;;;17.53;;
23266;SDS011;11802;53.160;8.214;2023-04-15T13:33:29;40.43;;;16.93;;
23266;SDS011;11802;53.160;8.214;2023-04-15T13:35:55;44.53;;;18.33;;
23266;SDS011;11802;53.160;8.214;2023-04-15T13:38:21;43.37;;;18.13;;
23266;SDS011;11802;53.160;8.214;2023-04-15T13:40:49;42.83;;;19.67;;
23266;SDS011;11802;53.160;8.214;2023-04-15T13:43:15;41.07;;;19.17;;
23266;SDS011;11802;53.160;8.214;2023-04-15T13:45:41;42.73;;;19.67;;
23266;SDS011;11802;53.160;8.214;2023-04-15T13:48:07;43.37;;;20.10;;
23266;SDS011;11802;53.160;8.214;2023-04-15T13:50:32;47.00;;;20.00;;
23266;SDS011;11802;53.160;8.214;2023-04-15T13:52:58;45.70;;;20.63;;
23266;SDS011;11802;53.160;8.214;2023-04-15T13:55:24;50.00;;;20.27;;
23266;SDS011;11802;53.160;8.214;2023-04-15T13:57:50;48.73;;;21.33;;
23266;SDS011;11802;53.160;8.214;2023-04-15T14:00:16;46.20;;;22.43;;
23266;SDS011;11802;53.160;8.214;2023-04-15T14:02:42;54.27;;;23.93;;
23266;SDS011;11802;53.160;8.214;2023-04-15T14:05:09;56.13;;;23.87;;
23266;SDS011;11802;53.160;8.214;2023-04-15T14:07:34;53.67;;;22.53;;
23266;SDS011;11802;53.160;8.214;2023-04-15T14:10:00;52.90;;;23.53;;
23266;SDS011;11802;53.160;8.214;2023-04-15T14:12:26;49.97;;;24.27;;
23266;SDS011;11802;53.160;8.214;2023-04-15T14:14:51;58.33;;;25.27;;
23266;SDS011;11802;53.160;8.214;2023-04-15T14:17:17;62.23;;;27.93;;
23266;SDS011;11802;53.160;8.214;2023-04-15T14:19:42;55.03;;;26.83;;
23266;SDS011;11802;53.160;8.214;2023-04-15T14:22:08;59.77;;;27.37;;
23266;SDS011;11802;53.160;8.214;2023-04-15T14:24:33;58.77;;;26.93;;
23266;SDS011;11802;53.160;8.214;2023-04-15T14:26:59;64.93;;;30.13;;
23266;SDS011;11802;53.160;8.214;2023-04-15T14:29:26;61.73;;;28.97;;
23266;SDS011;11802;53.160;8.214;2023-04-15T14:31:52;52.93;;;27.57;;
23266;SDS011;11802;53.160;8.214;2023-04-15T14:34:17;56.17;;;28.60;;